Wednesday, September 17, 2014
23:44 UTC
  |  Log In   |  Register Free
Airport Search:

Hillsboro Municipal Airport
(KINJ)

Hillsboro Municipal Airport Diagram
No Airport Diagram Available

FAA data valid effective July 24, 2014 until September 18, 2014 (unless otherwise noted).

 
 
 
 
 
 
 
 
 
 
 
 
 
 

Current Aviation Weather for Hillsboro Municipal Airport (KINJ)

The most recent METAR observation for KINJ was updated at: 2313
METAR Summary (Translated METAR)
KINJ
172255Z AUTO 11004KT 10SM CLR 32/19 A2986 RMK AO2 LTG DSNT W T03200193
KCPT
172255Z AUTO 13006KT 10SM CLR 32/20 A2988 RMK AO2 LTG DSNT W
(23.6 nm NW from KINJ)
KJWY
172255Z AUTO 00000KT 10SM CLR 26/22 A2988 RMK AO2 P0002 T02590215
(24.4 nm NE from KINJ)
TAF
No TAF information found within 50 nm of KINJ
  Airport Weather Conditions for KINJ

 Current Weather at INJ
90° F
Partly Cloudy
East winds at 6.9 mph
INJ NOAA Radar

Pressure: 29.86 in
Humidity: 47%
Wind: East at 6.9 MPH (6 KT)
Dew Point: 66.6°F
Visibility: 10.00 mi


Airport Weather Forecast for KINJ

Translated METAR and TAF for KINJ
Translated METAR for KINJ (2338 UTC 17 September 2014)
found at http://aviationweather.gov/adds/metars/
 
METAR text: KINJ 172315Z AUTO 09004KT 10SM CLR 32/20 A2986 RMK AO2 T03150195
Conditions at: KINJ (HILLSBORO , TX, US) observed 2315 UTC 17 September 2014
Temperature: 31.5°C (89°F)
Dewpoint: 19.5°C (67°F) [RH = 49%]
Pressure (altimeter): 29.86 inches Hg (1011.3 mb)
Winds: from the E (90 degrees) at 5 MPH (4 knots; 2.1 m/s)
Visibility: 10 or more miles (16+ km)
Ceiling: at least 12,000 feet AGL
Clouds: sky clear below 12,000 feet AGL
Weather: automated observation with no human augmentation;
there may or may not be significant weather present at this time
Translated TAF for KINJ

There is no translated TAF available for this airport

Find All Airport Services Find A Hotel Find A Rental Car Find A Golf Course Find A Restaurant $100 Hamburger



FBO's on the Field
FBO Company Facility Photos Services Transportation Aviation Fuel Prices: Prices include tax
Catering Weather Repair Courtesy Rental Type 100LL JetA JetA+ MOGAS 8087
 
Hillsboro Municipal Airport

This FBO has not yet been rated
FS:Avfuel
Last Updated: Sep-08
Login to update fuel prices
SS:
Contact Hillsboro Municipal AirportMore FBO Information
 
Add another FBO Facility Photos Catering Weather Repair Courtesy Rental Type 100LL JetA JetA+ MOGAS 8087
Services Transportation Aviation Fuel Prices: Prices include tax


model-print
model-print
model-print
model-print